createdAt,value
2023-05-05T00:02:43.269Z,4.5
2023-05-05T00:05:43.232Z,4.7
2023-05-05T00:08:43.237Z,5
2023-05-05T00:11:43.231Z,4.7
2023-05-05T00:14:43.270Z,4.8
2023-05-05T00:17:43.305Z,4.9
2023-05-05T00:20:43.251Z,4.9
2023-05-05T00:23:43.244Z,5
2023-05-05T00:26:43.258Z,4.8
2023-05-05T00:29:43.285Z,5.2
2023-05-05T00:32:43.293Z,5.1
2023-05-05T00:35:43.313Z,5.2
2023-05-05T00:38:43.304Z,4.7
2023-05-05T00:41:43.313Z,5.3
2023-05-05T00:44:43.333Z,5
2023-05-05T00:47:43.384Z,5.2
2023-05-05T00:50:43.335Z,4.8
2023-05-05T00:53:43.344Z,4.9
2023-05-05T00:56:43.365Z,5.1
2023-05-05T00:59:43.356Z,5.2
2023-05-05T01:02:43.408Z,5.1
2023-05-05T01:05:43.361Z,5.1
2023-05-05T01:08:43.375Z,5.2
2023-05-05T01:11:43.400Z,5.2
2023-05-05T01:14:43.399Z,5.1
2023-05-05T01:17:43.420Z,5.3
2023-05-05T01:20:43.382Z,5.3
2023-05-05T01:23:43.394Z,5.3
2023-05-05T01:26:43.380Z,5
2023-05-05T01:29:43.398Z,4.9
2023-05-05T01:32:43.413Z,5.4
2023-05-05T01:35:43.397Z,5.3
2023-05-05T01:38:43.399Z,5.1
2023-05-05T01:41:43.404Z,5.5
2023-05-05T01:44:43.389Z,5.2
2023-05-05T01:47:43.412Z,5.3
2023-05-05T01:50:43.381Z,5.7
2023-05-05T01:53:43.383Z,5.3
2023-05-05T01:56:43.395Z,5.4
2023-05-05T01:59:43.407Z,5.4
2023-05-05T02:02:43.504Z,5.4
2023-05-05T02:05:43.399Z,5.9
2023-05-05T02:08:43.393Z,5.5
2023-05-05T02:11:43.398Z,5.5
2023-05-05T02:14:43.410Z,5.6
2023-05-05T02:17:43.453Z,5.7
2023-05-05T02:20:43.414Z,5.5
2023-05-05T02:23:43.410Z,5.9
2023-05-05T02:26:43.413Z,5.7
2023-05-05T02:29:43.430Z,5.7
2023-05-05T02:32:43.438Z,5.7
2023-05-05T02:35:43.427Z,5.3
2023-05-05T02:38:43.425Z,5.5
2023-05-05T02:41:43.418Z,5.3
2023-05-05T02:44:43.429Z,5.4
2023-05-05T02:47:43.470Z,5.5
2023-05-05T02:50:43.424Z,5.5
2023-05-05T02:53:43.430Z,5.6
2023-05-05T02:56:43.444Z,5.7
2023-05-05T02:59:43.454Z,5.4
2023-05-05T03:02:43.513Z,5.5
2023-05-05T03:05:43.445Z,5.6
2023-05-05T03:08:43.437Z,5.3
2023-05-05T03:11:43.438Z,5.5
2023-05-05T03:14:43.452Z,5.4
2023-05-05T03:17:43.478Z,5.5
2023-05-05T03:20:43.455Z,5.5
2023-05-05T03:23:43.448Z,5.7
2023-05-05T03:26:43.457Z,5.6
2023-05-05T03:29:43.467Z,5.6
2023-05-05T03:32:43.466Z,5.3
2023-05-05T03:35:43.456Z,5
2023-05-05T03:38:43.470Z,5.5
2023-05-05T03:41:43.468Z,5.5
2023-05-05T03:44:43.487Z,5.5
2023-05-05T03:47:43.491Z,5.5
2023-05-05T03:50:43.478Z,5.6
2023-05-05T03:53:43.478Z,5.4
2023-05-05T03:56:43.483Z,5.5
2023-05-05T03:59:43.507Z,5.7
2023-05-05T04:02:43.642Z,5.4
2023-05-05T04:05:43.500Z,5.6
2023-05-05T04:08:43.489Z,5.3
2023-05-05T04:11:43.492Z,5.2
2023-05-05T04:14:43.528Z,5.1
2023-05-05T04:17:43.654Z,5.4
2023-05-05T04:20:43.518Z,5.2
2023-05-05T04:23:43.511Z,5.1
2023-05-05T04:26:43.527Z,5.1
2023-05-05T04:29:43.535Z,5.2
2023-05-05T04:32:43.540Z,5
2023-05-05T04:35:43.527Z,4.9
2023-05-05T04:38:43.537Z,4.9
2023-05-05T04:41:43.513Z,5.1
2023-05-05T04:44:43.558Z,4.9
2023-05-05T04:47:43.581Z,5.1
2023-05-05T04:50:43.529Z,4.9
2023-05-05T04:53:43.562Z,4.9
2023-05-05T04:56:43.555Z,4.9
2023-05-05T04:59:43.566Z,4.8
2023-05-05T05:02:43.609Z,4.6
2023-05-05T05:05:43.564Z,6.3
2023-05-05T05:08:43.565Z,5.3
2023-05-05T05:11:43.584Z,4.8
2023-05-05T05:14:43.584Z,4.7
2023-05-05T05:17:43.601Z,4.5
2023-05-05T05:20:43.573Z,4.3
2023-05-05T05:23:43.587Z,4.4
2023-05-05T05:26:43.590Z,4.4
2023-05-05T05:29:43.586Z,4.5
2023-05-05T05:32:43.709Z,4.5
2023-05-05T05:35:43.604Z,4.6
2023-05-05T05:38:43.601Z,4.4
2023-05-05T05:41:43.608Z,4.5
2023-05-05T05:44:43.609Z,4.7
2023-05-05T05:47:43.642Z,4.2
2023-05-05T05:50:43.638Z,4.3
2023-05-05T05:53:43.603Z,4.3
2023-05-05T05:56:43.630Z,4.2
2023-05-05T05:59:43.625Z,4.2
2023-05-05T06:02:43.702Z,4.5
2023-05-05T06:05:43.629Z,4.2
2023-05-05T06:08:43.626Z,4.4
2023-05-05T06:11:43.635Z,4.3
2023-05-05T06:14:43.634Z,4.4
2023-05-05T06:17:43.666Z,4.5
2023-05-05T06:20:43.646Z,4.8
2023-05-05T06:23:43.652Z,4.8
2023-05-05T06:26:43.642Z,4.5
2023-05-05T06:29:43.682Z,4.6
2023-05-05T06:32:43.701Z,4.8
2023-05-05T06:35:43.672Z,4.4
2023-05-05T06:38:43.681Z,4.6
2023-05-05T06:41:43.681Z,4.3
2023-05-05T06:44:43.721Z,4.4
2023-05-05T06:47:43.716Z,4.4
2023-05-05T06:50:43.694Z,4.5
2023-05-05T06:53:43.703Z,4.8
2023-05-05T06:56:43.714Z,4.6
2023-05-05T06:59:43.719Z,4.3
2023-05-05T07:02:43.749Z,4.4
2023-05-05T07:05:43.731Z,4.7
2023-05-05T07:08:43.733Z,4.6
2023-05-05T07:11:43.748Z,4.7
2023-05-05T07:14:43.752Z,4.6
2023-05-05T07:17:43.772Z,4.1
2023-05-05T07:20:43.755Z,5
2023-05-05T07:23:43.760Z,4.4
2023-05-05T07:26:43.771Z,5
2023-05-05T07:29:43.782Z,4.6
2023-05-05T07:32:43.812Z,4.8
2023-05-05T07:35:43.805Z,4.7
2023-05-05T07:38:43.781Z,4.6
2023-05-05T07:41:43.792Z,4.4
2023-05-05T07:44:43.815Z,4.3
2023-05-05T07:47:43.908Z,4.4
2023-05-05T07:50:43.808Z,4.7
2023-05-05T07:53:43.810Z,4.7
2023-05-05T07:56:43.832Z,4.6
2023-05-05T07:59:43.846Z,4.7
2023-05-05T08:02:43.858Z,4.7
2023-05-05T08:05:43.843Z,4.8
2023-05-05T08:08:43.848Z,4.5
2023-05-05T08:11:43.856Z,4.7
2023-05-05T08:14:43.872Z,4.7
2023-05-05T08:17:43.919Z,4.7
2023-05-05T08:20:43.873Z,4.9
2023-05-05T08:23:43.878Z,4.6
2023-05-05T08:26:43.889Z,4.5
2023-05-05T08:29:43.906Z,4.6
2023-05-05T08:32:43.916Z,4.4
2023-05-05T08:35:43.908Z,4.7
2023-05-05T08:38:43.915Z,4.6
2023-05-05T08:41:43.928Z,4.5
2023-05-05T08:44:43.939Z,4.6
2023-05-05T08:47:43.973Z,4.4
2023-05-05T08:50:43.942Z,4.6
2023-05-05T08:53:43.944Z,4.4
2023-05-05T08:56:43.955Z,4.6
2023-05-05T08:59:43.973Z,4.2
2023-05-05T09:02:44.093Z,4.5
2023-05-05T09:05:43.962Z,4.5
2023-05-05T09:08:43.976Z,4.4
2023-05-05T09:11:44.002Z,4.4
2023-05-05T09:14:44.007Z,4.6
2023-05-05T09:17:44.057Z,4.3
2023-05-05T09:20:44.007Z,4.1
2023-05-05T09:23:44.025Z,4.5
2023-05-05T09:26:44.025Z,4.3
2023-05-05T09:29:44.046Z,4.4
2023-05-05T09:32:44.093Z,4.2
2023-05-05T09:35:44.053Z,4.3
2023-05-05T09:38:44.056Z,4.3
2023-05-05T09:41:44.068Z,4.2
2023-05-05T09:44:44.089Z,4.4
2023-05-05T09:47:44.107Z,4.2
2023-05-05T09:50:44.110Z,4.1
2023-05-05T09:53:44.102Z,4.2
2023-05-05T09:56:44.110Z,4.1
2023-05-05T09:59:44.130Z,4.2
2023-05-05T10:02:44.151Z,4.1
2023-05-05T10:05:44.131Z,4.2
2023-05-05T10:08:44.146Z,4.4
2023-05-05T10:11:44.152Z,4.1
2023-05-05T10:14:44.168Z,4.3
2023-05-05T10:17:50.952Z,4.2
2023-05-05T10:20:44.176Z,4
2023-05-05T10:23:44.193Z,4.1
2023-05-05T10:26:44.204Z,4.4
2023-05-05T10:29:44.227Z,4.1
2023-05-05T10:35:44.244Z,4.1
2023-05-05T10:38:44.236Z,4.1
2023-05-05T10:41:44.249Z,4.3
2023-05-05T10:44:44.267Z,4.2
2023-05-05T10:47:44.328Z,4.1
2023-05-05T10:50:44.284Z,4.2
2023-05-05T10:53:44.310Z,3.9
2023-05-05T10:56:44.300Z,4.1
2023-05-05T10:59:44.320Z,3.8
2023-05-05T11:02:44.352Z,4.1
2023-05-05T11:05:44.327Z,3.9
2023-05-05T11:08:44.337Z,3.8
2023-05-05T11:11:44.350Z,4.1
2023-05-05T11:14:44.370Z,4.1
2023-05-05T11:17:44.415Z,3.8
2023-05-05T11:20:44.375Z,3.8
2023-05-05T11:23:44.392Z,4
2023-05-05T11:26:44.398Z,3.9
2023-05-05T11:29:44.411Z,3.8
2023-05-05T11:32:44.435Z,3.8
2023-05-05T11:35:44.409Z,3.8
2023-05-05T11:38:44.416Z,3.7
2023-05-05T11:41:44.421Z,3.7
2023-05-05T11:44:44.437Z,4.1
2023-05-05T11:47:44.440Z,3.5
2023-05-05T11:50:44.425Z,3.6
2023-05-05T11:53:44.438Z,3.7
2023-05-05T11:56:44.441Z,3.9
2023-05-05T11:59:44.453Z,3.6
2023-05-05T12:02:44.505Z,3.7
2023-05-05T12:05:44.461Z,3.8
2023-05-05T12:08:44.459Z,3.8
2023-05-05T12:11:44.463Z,3.8
2023-05-05T12:14:44.480Z,3.6
2023-05-05T12:17:44.495Z,3.7
2023-05-05T12:20:44.475Z,4.1
2023-05-05T12:23:44.491Z,3.7
2023-05-05T12:26:44.501Z,3.9
2023-05-05T12:29:44.497Z,4
2023-05-05T12:32:44.584Z,3.6
2023-05-05T12:35:44.497Z,3.7
2023-05-05T12:38:44.498Z,3.8
2023-05-05T12:41:44.506Z,3.8
2023-05-05T12:44:44.535Z,3.7
2023-05-05T12:47:44.534Z,3.6
2023-05-05T12:50:44.513Z,3.5
2023-05-05T12:53:44.528Z,3.5
2023-05-05T12:56:44.530Z,3.5
2023-05-05T12:59:44.542Z,3.4
2023-05-05T13:02:44.573Z,3.4
2023-05-05T13:05:44.552Z,3.4
2023-05-05T13:08:44.553Z,3.1
2023-05-05T13:11:44.551Z,3.3
2023-05-05T13:14:44.569Z,3.5
2023-05-05T13:17:44.553Z,3.4
2023-05-05T13:20:44.564Z,3.4
2023-05-05T13:23:44.561Z,3.4
2023-05-05T13:26:44.556Z,3.3
2023-05-05T13:29:44.614Z,3.5
2023-05-05T13:32:44.618Z,3.5
2023-05-05T13:35:44.581Z,3.3
2023-05-05T13:38:44.584Z,3.2
2023-05-05T13:41:44.601Z,3.2
2023-05-05T13:44:44.603Z,3
2023-05-05T13:47:44.655Z,3.3
2023-05-05T13:50:44.596Z,3.6
2023-05-05T13:53:44.609Z,3.3
2023-05-05T13:56:44.615Z,3.3
2023-05-05T13:59:44.631Z,3.1
2023-05-05T14:02:44.636Z,3.1
2023-05-05T14:05:44.633Z,3.2
2023-05-05T14:08:44.634Z,3.3
2023-05-05T14:11:44.635Z,3.1
2023-05-05T14:14:44.646Z,3.1
2023-05-05T14:17:44.646Z,3
2023-05-05T14:20:44.652Z,3.1
2023-05-05T14:23:44.651Z,2.9
2023-05-05T14:26:44.635Z,3
2023-05-05T14:29:44.653Z,2.8
2023-05-05T14:32:44.661Z,3
2023-05-05T14:35:44.642Z,2.9
2023-05-05T14:38:44.696Z,2.9
2023-05-05T14:41:44.679Z,2.9
2023-05-05T14:44:44.686Z,3.1
2023-05-05T14:47:44.769Z,2.9
2023-05-05T14:50:44.688Z,3.3
2023-05-05T14:53:44.702Z,3.5
2023-05-05T14:56:44.705Z,3.5
2023-05-05T14:59:44.718Z,3.4
2023-05-05T15:02:44.755Z,3.2
2023-05-05T15:05:44.713Z,3.2
2023-05-05T15:08:44.736Z,3.6
2023-05-05T15:11:44.743Z,3.4
2023-05-05T15:14:44.767Z,3.6
2023-05-05T15:17:44.748Z,3.5
2023-05-05T15:20:44.764Z,3.7
2023-05-05T15:23:44.774Z,4
2023-05-05T15:26:44.772Z,3.5
2023-05-05T15:29:44.779Z,4.1
2023-05-05T15:32:44.812Z,3.8
2023-05-05T15:35:44.783Z,3.7
2023-05-05T15:38:44.804Z,3.7
2023-05-05T15:41:44.805Z,4.1
2023-05-05T15:44:44.824Z,3.6
2023-05-05T15:47:44.872Z,3.5
2023-05-05T15:50:44.824Z,4
2023-05-05T15:53:44.828Z,3.7
2023-05-05T15:56:44.830Z,3.9
2023-05-05T15:59:44.842Z,3.6
2023-05-05T16:02:44.969Z,3.9
2023-05-05T16:05:44.851Z,3.7
2023-05-05T16:08:44.852Z,3.8
2023-05-05T16:11:44.844Z,4.1
2023-05-05T16:14:44.870Z,3.8
2023-05-05T16:17:44.916Z,3.8
2023-05-05T16:20:44.873Z,3.8
2023-05-05T16:23:44.849Z,3.6
2023-05-05T16:26:44.866Z,3.9
2023-05-05T16:29:44.872Z,3.7
2023-05-05T16:32:44.896Z,4
2023-05-05T16:35:44.863Z,3.9
2023-05-05T16:38:44.879Z,3.8
2023-05-05T16:41:44.880Z,3.8
2023-05-05T16:44:44.904Z,3.8
2023-05-05T16:47:44.904Z,3.9
2023-05-05T16:50:44.897Z,3.7
2023-05-05T16:53:45.274Z,4
2023-05-05T16:56:44.919Z,3.8
2023-05-05T16:59:44.924Z,3.8
2023-05-05T17:02:44.923Z,3.9
2023-05-05T17:05:45.280Z,4.9
2023-05-05T17:08:44.908Z,4.5
2023-05-05T17:11:44.921Z,3.8
2023-05-05T17:14:44.948Z,3.8
2023-05-05T17:17:44.955Z,3.6
2023-05-05T17:20:44.949Z,3.7
2023-05-05T17:23:44.947Z,3.9
2023-05-05T17:26:44.941Z,4.1
2023-05-05T17:29:44.971Z,4
2023-05-05T17:32:44.991Z,4.7
2023-05-05T17:35:44.962Z,5
2023-05-05T17:38:45.007Z,4.7
2023-05-05T17:41:44.965Z,5.4
2023-05-05T17:44:45.926Z,5.2
2023-05-05T17:47:45.024Z,5
2023-05-05T17:50:44.978Z,5.9
2023-05-05T17:53:44.991Z,5.4
2023-05-05T17:56:45.004Z,6
2023-05-05T17:59:45.007Z,5.8
2023-05-05T18:02:45.064Z,6.5
2023-05-05T18:05:45.014Z,6.3
2023-05-05T18:08:45.037Z,6.8
2023-05-05T18:11:45.029Z,6.7
2023-05-05T18:14:45.056Z,8
2023-05-05T18:17:45.031Z,7.8
2023-05-05T18:20:45.044Z,8.4
2023-05-05T18:23:45.048Z,8.8
2023-05-05T18:26:45.048Z,9.1
2023-05-05T18:29:45.068Z,9
2023-05-05T18:32:45.060Z,9
2023-05-05T18:35:45.070Z,10.2
2023-05-05T18:38:45.064Z,10.7
2023-05-05T18:41:45.069Z,11.4
2023-05-05T18:44:45.095Z,11.6
2023-05-05T18:47:45.124Z,13
2023-05-05T18:50:45.084Z,13.5
2023-05-05T18:53:45.097Z,13.5
2023-05-05T18:56:45.088Z,15.1
2023-05-05T18:59:45.119Z,15.6
2023-05-05T19:02:45.137Z,15.9
2023-05-05T19:05:45.119Z,16.4
2023-05-05T19:08:45.138Z,17.8
2023-05-05T19:11:45.127Z,18.1
2023-05-05T19:14:45.149Z,18.3
2023-05-05T19:17:45.179Z,17.4
2023-05-05T19:20:45.133Z,17.5
2023-05-05T19:23:45.135Z,18
2023-05-05T19:26:45.137Z,18.1
2023-05-05T19:29:45.175Z,18.4
2023-05-05T19:32:45.168Z,18.9
2023-05-05T19:35:45.161Z,18.3
2023-05-05T19:38:45.162Z,18.6
2023-05-05T19:41:45.161Z,19.4
2023-05-05T19:44:45.185Z,19.8
2023-05-05T19:47:45.202Z,20.3
2023-05-05T19:50:45.183Z,19.9
2023-05-05T19:53:45.203Z,19.9
2023-05-05T19:56:45.194Z,19.9
2023-05-05T19:59:45.206Z,21.1
2023-05-05T20:02:45.341Z,20.3
2023-05-05T20:05:45.210Z,20.4
2023-05-05T20:08:45.235Z,20.7
2023-05-05T20:11:45.228Z,20
2023-05-05T20:14:45.247Z,19.5
2023-05-05T20:17:45.276Z,19.4
2023-05-05T20:20:45.244Z,19.4
2023-05-05T20:23:45.282Z,20.5
2023-05-05T20:26:45.250Z,20.2
2023-05-05T20:29:45.263Z,20.7
2023-05-05T20:32:45.328Z,20.9
2023-05-05T20:35:45.269Z,21.1
2023-05-05T20:38:45.302Z,21.1
2023-05-05T20:41:45.278Z,21.1
2023-05-05T20:44:45.300Z,20.6
2023-05-05T20:47:45.332Z,20.9
2023-05-05T20:50:45.292Z,19.1
2023-05-05T20:53:45.296Z,19.1
2023-05-05T20:56:45.308Z,19.6
2023-05-05T20:59:45.325Z,19.1
2023-05-05T21:02:45.457Z,19.3
2023-05-05T21:05:45.314Z,18.3
2023-05-05T21:08:45.314Z,19.1
2023-05-05T21:11:45.311Z,19.4
2023-05-05T21:14:45.335Z,19.7
2023-05-05T21:17:45.399Z,20.5
2023-05-05T21:20:45.377Z,20.1
2023-05-05T21:23:45.342Z,20.4
2023-05-05T21:26:45.343Z,20.2
2023-05-05T21:29:45.355Z,20.3
2023-05-05T21:32:45.456Z,18.5
2023-05-05T21:35:45.354Z,18.2
2023-05-05T21:38:45.362Z,17.4
2023-05-05T21:41:45.367Z,16.6
2023-05-05T21:44:45.384Z,15.4
2023-05-05T21:47:45.398Z,14.3
2023-05-05T21:50:45.382Z,14.2
2023-05-05T21:53:45.385Z,15.2
2023-05-05T21:56:45.400Z,14.7
2023-05-05T21:59:45.404Z,15.1
2023-05-05T22:02:45.563Z,15.4
2023-05-05T22:05:45.404Z,15.6
2023-05-05T22:08:45.407Z,15.4
2023-05-05T22:11:45.403Z,15.1
2023-05-05T22:14:45.413Z,13.9
2023-05-05T22:17:45.457Z,13.6
2023-05-05T22:20:45.420Z,13.5
2023-05-05T22:23:45.432Z,13.8
2023-05-05T22:26:45.427Z,14.1
2023-05-05T22:29:45.440Z,13.5
2023-05-05T22:32:45.463Z,14.1
2023-05-05T22:35:45.448Z,14.3
2023-05-05T22:38:45.459Z,13.8
2023-05-05T22:41:45.452Z,14.1
2023-05-05T22:44:45.476Z,13.3
2023-05-05T22:47:45.481Z,13.7
2023-05-05T22:50:45.469Z,13
2023-05-05T22:53:45.464Z,12.5
2023-05-05T22:56:45.473Z,12.4
2023-05-05T22:59:45.483Z,12.3
2023-05-05T23:02:45.502Z,12.7
2023-05-05T23:05:45.497Z,13.3
2023-05-05T23:08:45.503Z,12.9
2023-05-05T23:11:45.506Z,13.3
2023-05-05T23:14:45.516Z,12.9
2023-05-05T23:17:45.526Z,12
2023-05-05T23:20:45.519Z,12.3
2023-05-05T23:23:45.530Z,12.8
2023-05-05T23:26:45.535Z,11.9
2023-05-05T23:29:45.546Z,11.5
2023-05-05T23:32:45.548Z,11.4
2023-05-05T23:35:45.541Z,11.7
2023-05-05T23:38:45.545Z,12.1
2023-05-05T23:41:45.561Z,12
2023-05-05T23:44:45.561Z,12.3
2023-05-05T23:47:45.569Z,12.3
2023-05-05T23:50:45.575Z,13.2
2023-05-05T23:53:45.570Z,13.7
2023-05-05T23:56:45.573Z,13.1
2023-05-05T23:59:45.582Z,13.5
